OIZJ  Jask Airport

Add Bookmark

Jask, Iran

Status
Operational
Latitude Longitude
25° 39' 12" N 57° 47' 57" E
25.653601 57.799301
Local (DST + 5) UTC (GMT + 4)
Aug 23, 2014 07:49 Aug 23, 2014 15:19
Sunrise-Sunset Local UTC
Begin Civil Twilight 05:50 01:20
Sunrise 06:14 01:44
Sunset 07:08 14:38
End Civil Twilight 07:32 15:02

Current Weather

METAR Observed MVFR
OIZJ 231500Z 15012KT 6000 SCT020 30/26 Q1002 Sat, Aug 23, 2014 @ 15:00 UTC
(19 Minutes ago)
Marginal Visual Flight Rules
Wind Visibility Clouds Conditions
150° at 12 knots (22 kph) 6000 meters
  • Scattered at 2,000' AGL
  • No significant weather
Temperatures Readings Precipitation
Current Temp 30°C (86°F)
Dewpoint 26°C (79°F)
Heat Index 37°C (99°F)
Humidity 79%
Altimeter 29.59"Hg
Sea Level Pressure 1002mb
Field Elevation 13.12'
None Recorded

Additional weather within a 185.2km radius of OIZJ

Map ICAO Location
OMFJ 159.8km W (248°)
OIKO 178.5km N (337°)

24 Hour Weather History

Loading
-

24 Hour Weather Graphs

Loading
-

CheckWX.com is intended as a tool to help pilots better visualize weather data. It is not intended as a substitute for an official weather briefing obtained from a Flight Service Station. CheckWX.com does not meet the FAA requirements for an official pre-flight weather briefing. Therefore, it's important that pilots still call and obtain an official FSS pre-flight weather briefing.